Plymouth Light

42° 00' 12"N, 70° 36' 04"W, Elevation 54 ft.
Eastern Time

Hourly observations for the last 72 hours

Date Time Temperature (°F) Humi-
dity

(%)
Wind
(mph)
Pressure Rain (in) Sun
(W/m2)
ET
(in)
Air Dew 6 Hour 1 Hr 3 Hr 6 Hr Day
Alt
(in)
Sea
Level

(mb)
Max Min
25 23:00 63.6 63.3 99 NE 3 G 5 29.83 1010.2 0.02 0.03 0.49 0 0.001
25 22:00 63.8 63.2 98 NE 3 G 5 29.84 1010.6 0.01 0.47 0 0.001
25 21:00 63.8 63.2 98 NNE 3 G 4 29.86 1011.2 0.46 0 0.001
25 20:00 63.9 63.3 67.1 63.7 98 NNE 3 G 5 29.88 1011.8 0.15 0.49 0.46 0 0.001
25 19:00 63.8 63.2 98 Calm 29.89 1012.1 0.01 0.46 0 0.001
25 18:00 63.8 62.9 97 NNE 2 G 10 29.89 1012.2 0.14 0.45 9 0.001
25 17:00 64.2 63.0 96 NNE 3 G 5 29.89 1012.3 0.34 0.34 0.31 33 0.000
25 16:00 64.8 62.7 93 ENE 1 G 4 29.91 1012.9 0.00 19 0.057
25 15:00 66.9 63.9 90 NE 4 G 9 29.93 1013.4 0.00 178 0.051
25 14:00 65.9 62.6 66.4 63.4 89 NE 6 G 9 29.95 1014.2 0.00 199 0.046
25 13:00 65.5 61.5 87 NNE 7 G 10 29.96 1014.7 0.00 789 0.034
25 12:00 64.7 60.7 87 N 7 G 12 29.98 1015.2 0.00 248 0.024
25 11:00 64.6 60.6 87 NNE 6 G 11 29.99 1015.6 0.00 255 0.017
25 10:00 64.9 61.3 88 N 2 G 7 30.00 1015.8 0.00 149 0.012
25 09:00 64.2 61.5 91 NNE 4 G 9 30.00 1016.0 0.00 174 0.008
25 08:00 64.0 61.3 66.8 62.0 91 NNE 2 G 4 30.00 1016.0 0.00 47 0.006
25 07:00 62.6 60.5 93 NNE 2 G 6 30.00 1015.8 0.00 12 0.005
25 06:00 63.0 60.6 92 N 2 G 5 29.99 1015.6 0.00 0 0.005
25 05:00 63.3 60.9 92 NNE 0 G 4 29.99 1015.7 0.00 0 0.005
25 04:00 64.9 62.2 91 NNW 0 G 2 29.98 1015.4 0.00 0 0.005
25 03:00 65.6 63.2 92 NNW 2 G 5 29.99 1015.5 0.00 0 0.005
25 02:00 66.1 62.8 71.1 65.9 89 WSW 3 G 5 29.99 1015.7 0.00 0 0.005
25 01:00 66.5 64.7 94 S 1 G 2 30.00 1015.8 0.00 0 0.005
25 00:00 67.9 65.8 93 W 0 G 2 30.00 1015.8 0.01 0 0.005
24 23:00 67.9 66.1 94 Calm 30.00 1015.8 0.00 0 0.005
24 22:00 68.7 67.5 96 WSW 5 G 9 29.99 1015.5 0.00 0 0.005
24 21:00 70.0 68.5 95 SSW 6 G 12 29.99 1015.6 0.00 0 0.005
24 20:00 71.0 69.8 74.0 69.3 96 WSW 3 G 8 29.98 1015.3 0.00 0 0.005
24 19:00 70.2 69.0 96 SSW 8 G 16 29.97 1015.0 0.00 0 0.005
24 18:00 70.6 69.1 95 SSW 11 G 15 29.97 1014.8 0.00 28 0.004
24 17:00 71.3 69.5 94 SSW 14 G 23 29.96 1014.5 0.00 127 0.000
24 16:00 73.0 70.9 93 SSW 18 G 27 29.95 1014.2 0.01 163 0.064
24 15:00 73.4 70.3 90 SSW 19 G 26 29.94 1013.9 0.01 260 0.057
24 14:00 69.8 67.4 74.3 66.5 92 S 23 G 36 29.92 1013.3 0.01 0.01 0.01 158 0.051
24 13:00 73.2 70.7 92 S 21 G 29 29.99 1015.7 0.01 0.01 239 0.043
24 12:00 73.2 70.1 90 S 18 G 29 30.00 1015.8 0.00 376 0.034
24 11:00 68.9 67.1 94 S 19 G 27 29.99 1015.7 0.00 285 0.025
24 10:00 69.0 67.5 95 S 20 G 29 30.00 1015.8 0.00 506 0.016
24 09:00 67.8 66.9 97 S 19 G 27 29.99 1015.5 0.00 127 0.011
24 08:00 67.7 67.1 67.8 66.2 98 S 18 G 26 29.98 1015.3 0.00 155 0.007
24 07:00 66.3 66.0 99 SSE 13 G 20 30.00 1016.0 0.00 39 0.006
24 06:00 67.2 66.9 99 S 13 G 19 30.00 1015.8 0.00 0 0.006
24 05:00 67.1 66.8 99 S 18 G 23 30.00 1015.8 0.00 0 0.006
24 04:00 66.7 66.4 99 S 15 G 21 30.00 1015.8 0.00 0 0.006
24 03:00 66.8 66.5 99 S 14 G 20 30.00 1016.1 0.00 0 0.006
24 02:00 66.7 66.1 67.6 66.4 98 SSE 9 G 15 30.01 1016.3 0.00 0 0.006
24 01:00 66.6 66.0 98 SSE 14 G 19 30.02 1016.6 0.00 0 0.006
24 00:00 67.0 66.4 98 SSE 10 G 17 30.03 1016.9 0.00 0 0.006
23 23:00 66.7 66.1 98 SSE 9 G 16 30.04 1017.2 0.00 0 0.006
23 22:00 66.7 66.1 98 SSE 12 G 17 30.04 1017.3 0.00 0 0.006
23 21:00 66.8 65.9 97 SSE 9 G 17 30.05 1017.5 0.00 0 0.006
23 20:00 67.6 66.4 71.3 67.6 96 SSE 12 G 22 30.05 1017.6 0.00 0 0.005
23 19:00 68.7 67.5 96 S 13 G 20 30.03 1017.1 0.00 0 0.004
23 18:00 68.4 66.9 95 SSE 14 G 20 30.02 1016.6 0.00 26 0.003
23 17:00 68.6 66.8 94 SSE 11 G 17 30.01 1016.5 0.00 105 0.000
23 16:00 70.1 68.0 93 SSE 12 G 18 30.02 1016.5 0.00 162 0.110
23 15:00 70.7 68.3 92 SSE 9 G 16 30.03 1016.9 0.00 214 0.100
23 14:00 70.9 67.2 72.0 67.2 88 S 17 G 23 30.03 1017.1 0.00 584 0.085
23 13:00 71.7 68.0 88 SSE 15 G 23 30.05 1017.5 0.00 359 0.071
23 12:00 71.2 67.8 89 S 12 G 20 30.05 1017.6 0.00 439 0.059
23 11:00 71.1 68.0 90 S 12 G 18 30.05 1017.7 0.00 719 0.044
23 10:00 69.8 67.7 93 SSE 9 G 16 30.05 1017.7 0.00 527 0.032
23 09:00 68.2 67.0 96 SSE 10 G 16 30.04 1017.4 0.00 378 0.023
23 08:00 67.3 66.7 67.8 66.4 98 S 12 G 17 30.04 1017.3 0.00 90 0.019
23 07:00 66.6 66.0 98 S 13 G 18 30.04 1017.3 0.00 35 0.018
23 06:00 66.9 66.0 97 S 13 G 17 30.04 1017.4 0.00 0 0.018
23 05:00 67.1 65.9 96 S 9 G 12 30.05 1017.5 0.00 0 0.018
23 04:00 67.5 66.3 96 S 13 G 18 30.05 1017.5 0.00 0 0.017
23 03:00 67.7 66.5 96 S 15 G 20 30.05 1017.6 0.00 0 0.016
23 02:00 67.6 66.1 70.0 67.4 95 SSE 12 G 17 30.06 1018.0 0.00 0 0.015
23 01:00 68.1 66.3 94 S 14 G 16 30.07 1018.3 0.00 0 0.014
23 00:00 68.0 66.2 94 S 13 G 16 30.08 1018.5 0.00 0 0.013

Data generated by WxSolution Version 1.9.1.1, Build 2017.11.27.